Fdl, Wisconsin
Current Conditions -  °F | °C
As of 2:53 AM on Monday 20 Oct 2014 (Local Time) from KFLD Reporting Station
Clear Clear  
Wind Chill: 43°   Ceiling: Unl
Heat Index: 47°   Visibility: 10mi
Dew Point: 41°   Wind: 9mph
Humidity: 80%   Direction: 220°SW
Pressure: 29.77"   Gusts: NA
Location:  43.7436°N, 88.3886°W
Report Text: KFLD 200753Z AUTO 22008KT 10SM CLR 08/05 A2977 RMK AO2 SLP083 T00830050
Loading
Personal Weather Stations






























Interactive Weather Map
Tropical Storm Tracking
New forecast layout! Learn more

10-Day Weather Forecast

Advertisements
Track Severe Weather on mobile